createdAt,value
2019-03-19T00:00:38.903Z,39.57
2019-03-19T00:01:38.994Z,39.56
2019-03-19T00:02:38.898Z,39.54
2019-03-19T00:03:38.911Z,39.58
2019-03-19T00:04:39.017Z,39.6
2019-03-19T00:05:39.111Z,39.57
2019-03-19T00:06:38.898Z,39.52
2019-03-19T00:07:39.010Z,39.57
2019-03-19T00:08:38.943Z,39.57
2019-03-19T00:09:38.944Z,39.6
2019-03-19T00:10:38.979Z,39.58
2019-03-19T00:11:39.022Z,39.58
2019-03-19T00:12:39.107Z,39.54
2019-03-19T00:13:39.008Z,39.56
2019-03-19T00:14:39.093Z,39.51
2019-03-19T00:15:39.015Z,39.6
2019-03-19T00:16:38.721Z,39.57
2019-03-19T00:17:38.753Z,39.61
2019-03-19T00:18:38.880Z,39.6
2019-03-19T00:19:38.776Z,39.6
2019-03-19T00:20:38.797Z,39.62
2019-03-19T00:21:38.786Z,39.58
2019-03-19T00:22:39.039Z,39.59
2019-03-19T00:23:39.242Z,39.57
2019-03-19T00:24:39.263Z,39.59
2019-03-19T00:25:39.379Z,39.57
2019-03-19T00:26:38.893Z,39.63
2019-03-19T00:27:39.098Z,39.6
2019-03-19T00:28:39.296Z,39.62
2019-03-19T00:29:38.902Z,39.65
2019-03-19T00:30:38.974Z,39.63
2019-03-19T00:31:38.988Z,39.66
2019-03-19T00:32:39.141Z,39.67
2019-03-19T00:33:39.052Z,39.66
2019-03-19T00:34:38.849Z,39.65
2019-03-19T00:35:38.814Z,39.62
2019-03-19T00:36:38.837Z,39.66
2019-03-19T00:37:38.941Z,39.64
2019-03-19T00:38:38.898Z,39.7
2019-03-19T00:39:38.785Z,39.67
2019-03-19T00:40:38.981Z,39.62
2019-03-19T00:41:38.984Z,39.69
2019-03-19T00:42:38.978Z,39.66
2019-03-19T00:43:38.951Z,39.61
2019-03-19T00:44:38.982Z,39.65
2019-03-19T00:45:39.641Z,39.67
2019-03-19T00:46:39.005Z,39.69
2019-03-19T00:47:39.009Z,39.62
2019-03-19T00:48:39.256Z,39.66
2019-03-19T00:49:38.985Z,39.69
2019-03-19T00:50:39.076Z,39.63
2019-03-19T00:51:38.758Z,39.62
2019-03-19T00:52:38.766Z,39.66
2019-03-19T00:53:38.835Z,39.63
2019-03-19T00:54:39.097Z,39.59
2019-03-19T00:55:41.212Z,39.62
2019-03-19T00:56:38.786Z,39.64
2019-03-19T00:57:38.793Z,39.61
2019-03-19T00:58:38.876Z,39.67
2019-03-19T00:59:39.190Z,39.63
2019-03-19T01:00:38.918Z,39.66
2019-03-19T01:01:39.116Z,39.62
2019-03-19T01:02:38.902Z,39.65
2019-03-19T01:03:38.902Z,39.66
2019-03-19T01:04:38.929Z,39.64
2019-03-19T01:05:38.886Z,39.64
2019-03-19T01:06:38.931Z,39.64
2019-03-19T01:07:39.261Z,39.65
2019-03-19T01:08:39.481Z,39.64
2019-03-19T01:09:38.872Z,39.65
2019-03-19T01:10:38.831Z,39.67
2019-03-19T01:11:38.869Z,39.62
2019-03-19T01:12:38.815Z,39.64
2019-03-19T01:13:38.868Z,39.65
2019-03-19T01:14:38.852Z,39.65
2019-03-19T01:15:38.857Z,39.68
2019-03-19T01:16:38.890Z,39.68
2019-03-19T01:17:38.985Z,39.65
2019-03-19T01:18:38.960Z,39.71
2019-03-19T01:19:38.996Z,39.68
2019-03-19T01:20:39.106Z,39.69
2019-03-19T01:21:39.019Z,39.7
2019-03-19T01:22:39.068Z,39.67
2019-03-19T01:23:38.974Z,39.73
2019-03-19T01:24:39.070Z,39.7
2019-03-19T01:25:39.799Z,39.69
2019-03-19T01:26:38.873Z,39.68
2019-03-19T01:27:38.831Z,39.67
2019-03-19T01:28:38.893Z,39.67
2019-03-19T01:29:39.134Z,39.71
2019-03-19T01:30:38.978Z,39.7
2019-03-19T01:31:38.816Z,39.68
2019-03-19T01:32:38.862Z,39.67
2019-03-19T01:33:38.842Z,39.68
2019-03-19T01:34:39.005Z,39.68
2019-03-19T01:35:38.935Z,39.7
2019-03-19T01:36:38.837Z,39.68
2019-03-19T01:37:38.886Z,39.72
2019-03-19T01:38:38.951Z,39.68
2019-03-19T01:39:39.015Z,39.7
2019-03-19T01:40:39.013Z,39.71
2019-03-19T01:41:38.994Z,39.71
2019-03-19T01:42:39.146Z,39.68
2019-03-19T01:43:38.853Z,39.68
2019-03-19T01:44:38.901Z,39.69
2019-03-19T01:45:39.301Z,39.7
2019-03-19T01:46:38.806Z,39.67
2019-03-19T01:47:38.875Z,39.67
2019-03-19T01:48:38.824Z,39.7
2019-03-19T01:49:38.848Z,39.73
2019-03-19T01:50:39.186Z,39.72
2019-03-19T01:51:39.402Z,39.68
2019-03-19T01:52:39.049Z,39.66
2019-03-19T01:53:38.900Z,39.68
2019-03-19T01:54:39.044Z,39.69
2019-03-19T01:55:38.977Z,39.68
2019-03-19T01:56:38.967Z,39.69
2019-03-19T01:57:39.031Z,39.69
2019-03-19T01:58:38.999Z,39.67
2019-03-19T01:59:38.681Z,39.67
2019-03-19T02:00:38.717Z,39.67
2019-03-19T02:01:38.731Z,39.71
2019-03-19T02:02:38.810Z,39.65
2019-03-19T02:03:38.746Z,39.69
2019-03-19T02:04:38.981Z,39.68
2019-03-19T02:05:38.812Z,39.72
2019-03-19T02:06:38.827Z,39.73
2019-03-19T02:07:38.894Z,39.7
2019-03-19T02:08:38.935Z,39.7
2019-03-19T02:09:38.831Z,39.67
2019-03-19T02:10:39.009Z,39.69
2019-03-19T02:11:39.069Z,39.67
2019-03-19T02:12:39.334Z,39.67
2019-03-19T02:13:38.928Z,39.67
2019-03-19T02:14:38.948Z,39.68
2019-03-19T02:15:39.143Z,39.71
2019-03-19T02:16:38.772Z,39.69
2019-03-19T02:17:38.894Z,39.66
2019-03-19T02:18:38.797Z,39.66
2019-03-19T02:19:38.801Z,39.71
2019-03-19T02:20:38.810Z,39.65
2019-03-19T02:21:38.796Z,39.68
2019-03-19T02:22:38.859Z,39.64
2019-03-19T02:23:38.832Z,39.68
2019-03-19T02:24:38.888Z,39.67
2019-03-19T02:25:38.880Z,39.63
2019-03-19T02:26:38.902Z,39.66
2019-03-19T02:27:38.672Z,39.68
2019-03-19T02:28:38.899Z,39.64
2019-03-19T02:29:39.013Z,39.64
2019-03-19T02:30:38.953Z,39.65
2019-03-19T02:31:38.953Z,39.65
2019-03-19T02:32:39.055Z,39.67
2019-03-19T02:33:39.157Z,39.66
2019-03-19T02:34:38.754Z,39.64
2019-03-19T02:35:38.780Z,39.65
2019-03-19T02:36:38.803Z,39.66
2019-03-19T02:37:38.764Z,39.67
2019-03-19T02:38:38.776Z,39.67
2019-03-19T02:39:38.867Z,39.68
2019-03-19T02:40:38.939Z,39.67
2019-03-19T02:41:38.950Z,39.7
2019-03-19T02:42:39.025Z,39.71
2019-03-19T02:43:38.923Z,39.68
2019-03-19T02:44:38.875Z,39.68
2019-03-19T02:45:38.873Z,39.65
2019-03-19T02:46:38.928Z,39.68
2019-03-19T02:47:38.906Z,39.67
2019-03-19T02:48:40.028Z,39.69
2019-03-19T02:49:38.930Z,39.7
2019-03-19T02:50:38.919Z,39.67
2019-03-19T02:51:38.883Z,39.66
2019-03-19T02:52:38.750Z,39.62
2019-03-19T02:53:38.835Z,39.67
2019-03-19T02:54:38.834Z,39.7
2019-03-19T02:55:39.124Z,39.7
2019-03-19T02:56:39.244Z,39.64
2019-03-19T02:57:38.827Z,39.62
2019-03-19T02:58:38.894Z,39.63
2019-03-19T02:59:38.844Z,39.66
2019-03-19T03:00:39.030Z,39.67
2019-03-19T03:01:38.945Z,39.7
2019-03-19T03:02:38.994Z,39.7
2019-03-19T03:03:38.953Z,39.66
2019-03-19T03:04:39.008Z,39.65
2019-03-19T03:05:38.943Z,39.69
2019-03-19T03:06:39.037Z,39.63
2019-03-19T03:07:38.994Z,39.66
2019-03-19T03:08:38.971Z,39.66
2019-03-19T03:09:38.730Z,39.7
2019-03-19T03:10:38.697Z,39.67
2019-03-19T03:11:38.751Z,39.64
2019-03-19T03:12:38.762Z,39.62
2019-03-19T03:13:38.814Z,39.67
2019-03-19T03:14:38.928Z,39.67
2019-03-19T03:15:38.912Z,39.66
2019-03-19T03:16:38.818Z,39.64
2019-03-19T03:17:38.817Z,39.64
2019-03-19T03:18:39.307Z,39.65
2019-03-19T03:19:38.909Z,39.68
2019-03-19T03:20:38.917Z,39.67
2019-03-19T03:21:38.842Z,39.64
2019-03-19T03:22:39.045Z,39.65
2019-03-19T03:23:38.876Z,39.67
2019-03-19T03:24:38.979Z,39.63
2019-03-19T03:25:38.891Z,39.64
2019-03-19T03:26:48.701Z,39.63
2019-03-19T03:27:38.740Z,39.69
2019-03-19T03:28:38.726Z,39.69
2019-03-19T03:29:38.774Z,39.67
2019-03-19T03:30:38.729Z,39.66
2019-03-19T03:31:38.826Z,39.64
2019-03-19T03:32:38.817Z,39.65
2019-03-19T03:33:38.953Z,39.68
2019-03-19T03:34:38.964Z,39.63
2019-03-19T03:35:38.796Z,39.68
2019-03-19T03:36:38.884Z,39.69
2019-03-19T03:37:38.873Z,39.67
2019-03-19T03:38:38.672Z,39.66
2019-03-19T03:39:38.863Z,39.66
2019-03-19T03:40:38.863Z,39.66
2019-03-19T03:41:39.166Z,39.61
2019-03-19T03:42:38.881Z,39.65
2019-03-19T03:43:38.938Z,39.68
2019-03-19T03:44:38.937Z,39.65
2019-03-19T03:45:38.942Z,39.65
2019-03-19T03:46:38.729Z,39.66
2019-03-19T03:47:38.711Z,39.62
2019-03-19T03:48:38.790Z,39.67
2019-03-19T03:49:38.784Z,39.67
2019-03-19T03:50:38.807Z,39.66
2019-03-19T03:51:38.900Z,39.65
2019-03-19T03:52:38.713Z,39.65
2019-03-19T03:53:38.801Z,39.66
2019-03-19T03:54:39.052Z,39.64
2019-03-19T03:55:38.942Z,39.66
2019-03-19T03:56:38.825Z,39.63
2019-03-19T03:57:38.844Z,39.63
2019-03-19T03:58:38.801Z,39.67
2019-03-19T03:59:38.883Z,39.62
2019-03-19T04:00:39.179Z,39.63
2019-03-19T04:01:39.222Z,39.67
2019-03-19T04:02:38.884Z,39.66
2019-03-19T04:03:38.915Z,39.65
2019-03-19T04:04:38.674Z,39.63
2019-03-19T04:05:38.730Z,39.67
2019-03-19T04:06:38.746Z,39.62
2019-03-19T04:07:38.760Z,39.63
2019-03-19T04:08:38.816Z,39.66
2019-03-19T04:09:38.757Z,39.66
2019-03-19T04:10:38.887Z,39.62
2019-03-19T04:11:38.901Z,39.62
2019-03-19T04:12:38.805Z,39.64
2019-03-19T04:13:38.802Z,39.61
2019-03-19T04:14:38.866Z,39.62
2019-03-19T04:15:38.883Z,39.67
2019-03-19T04:16:38.976Z,39.63
2019-03-19T04:17:38.907Z,39.66
2019-03-19T04:18:38.921Z,39.69
2019-03-19T04:19:38.942Z,39.66
2019-03-19T04:20:39.108Z,39.66
2019-03-19T04:21:38.950Z,39.64
2019-03-19T04:22:38.887Z,39.62
2019-03-19T04:23:38.749Z,39.62
2019-03-19T04:24:38.861Z,39.61
2019-03-19T04:25:38.659Z,39.6
2019-03-19T04:26:38.791Z,39.61
2019-03-19T04:27:41.235Z,39.59
2019-03-19T04:28:38.881Z,39.6
2019-03-19T04:29:38.800Z,39.61
2019-03-19T04:30:38.918Z,39.6
2019-03-19T04:31:38.793Z,39.62
2019-03-19T04:32:38.819Z,39.66
2019-03-19T04:33:38.775Z,39.65
2019-03-19T04:34:38.782Z,39.67
2019-03-19T04:35:38.863Z,39.65
2019-03-19T04:36:38.875Z,39.62
2019-03-19T04:37:38.909Z,39.62
2019-03-19T04:38:39.032Z,39.6
2019-03-19T04:39:38.669Z,39.66
2019-03-19T04:40:38.719Z,39.59
2019-03-19T04:41:38.726Z,39.63
2019-03-19T04:42:38.757Z,39.62
2019-03-19T04:43:38.740Z,39.59
2019-03-19T04:44:38.884Z,39.64
2019-03-19T04:45:38.894Z,39.62
2019-03-19T04:46:38.775Z,39.63
2019-03-19T04:47:38.802Z,39.64
2019-03-19T04:48:38.773Z,39.63
2019-03-19T04:49:38.843Z,39.61
2019-03-19T04:50:38.817Z,39.61
2019-03-19T04:51:38.817Z,39.6
2019-03-19T04:52:38.857Z,39.57
2019-03-19T04:53:38.847Z,39.58
2019-03-19T04:54:38.906Z,39.57
2019-03-19T04:55:38.859Z,39.63
2019-03-19T04:56:38.908Z,39.58
2019-03-19T04:57:38.928Z,39.63
2019-03-19T04:58:38.696Z,39.6
2019-03-19T04:59:38.817Z,39.68
2019-03-19T05:00:38.707Z,39.67
2019-03-19T05:01:38.650Z,39.7
2019-03-19T05:02:38.761Z,39.71
2019-03-19T05:03:38.815Z,39.7
2019-03-19T05:04:38.762Z,39.71
2019-03-19T05:05:38.995Z,39.67
2019-03-19T05:06:38.914Z,39.57
2019-03-19T05:07:38.860Z,39.59
2019-03-19T05:08:38.940Z,39.6
2019-03-19T05:09:38.863Z,39.57
2019-03-19T05:10:38.810Z,39.54
2019-03-19T05:11:38.856Z,39.56
2019-03-19T05:12:38.792Z,39.51
2019-03-19T05:13:38.867Z,39.53
2019-03-19T05:14:39.003Z,39.51
2019-03-19T05:15:39.027Z,39.54
2019-03-19T05:16:38.656Z,39.51
2019-03-19T05:17:38.722Z,39.49
2019-03-19T05:18:38.794Z,39.53
2019-03-19T05:19:38.820Z,39.58
2019-03-19T05:20:38.758Z,39.53
2019-03-19T05:21:38.830Z,39.51
2019-03-19T05:22:38.874Z,39.52
2019-03-19T05:23:39.069Z,39.54
2019-03-19T05:24:38.824Z,39.56
2019-03-19T05:25:38.861Z,39.53
2019-03-19T05:26:38.925Z,39.48
2019-03-19T05:27:39.109Z,39.55
2019-03-19T05:28:39.288Z,39.57
2019-03-19T05:29:39.158Z,39.55
2019-03-19T05:30:38.899Z,39.55
2019-03-19T05:31:38.898Z,39.55
2019-03-19T05:32:39.026Z,39.58
2019-03-19T05:33:39.040Z,39.55
2019-03-19T05:34:38.761Z,39.54
2019-03-19T05:35:38.706Z,39.6
2019-03-19T05:36:38.687Z,39.58
2019-03-19T05:37:38.647Z,39.61
2019-03-19T05:38:38.703Z,39.61
2019-03-19T05:39:38.705Z,39.53
2019-03-19T05:40:38.746Z,39.6
2019-03-19T05:41:38.701Z,39.59
2019-03-19T05:42:38.716Z,39.59
2019-03-19T05:43:38.871Z,39.57
2019-03-19T05:44:38.757Z,39.59
2019-03-19T05:45:38.768Z,39.63
2019-03-19T05:46:38.801Z,39.6
2019-03-19T05:47:40.996Z,39.62
2019-03-19T05:48:38.860Z,39.56
2019-03-19T05:49:38.924Z,39.64
2019-03-19T05:50:38.994Z,39.63
2019-03-19T05:51:38.807Z,39.61
2019-03-19T05:52:38.770Z,39.58
2019-03-19T05:53:38.760Z,39.57
2019-03-19T05:54:38.728Z,39.58
2019-03-19T05:55:38.861Z,39.57
2019-03-19T05:56:38.758Z,39.56
2019-03-19T05:57:50.310Z,39.51
2019-03-19T05:58:38.820Z,39.57
2019-03-19T05:59:40.232Z,39.56
2019-03-19T06:00:38.816Z,39.55
2019-03-19T06:01:38.801Z,39.53
2019-03-19T06:02:38.813Z,39.5
2019-03-19T06:03:38.787Z,39.54
2019-03-19T06:04:38.868Z,39.55
2019-03-19T06:05:38.847Z,39.52
2019-03-19T06:06:38.894Z,39.49
2019-03-19T06:07:38.901Z,39.51
2019-03-19T06:08:38.869Z,39.51
2019-03-19T06:09:38.891Z,39.55
2019-03-19T06:10:38.979Z,39.52
2019-03-19T06:11:38.700Z,39.51
2019-03-19T06:12:38.685Z,39.52
2019-03-19T06:13:38.795Z,39.5
2019-03-19T06:14:38.781Z,39.47
2019-03-19T06:15:38.735Z,39.52
2019-03-19T06:16:38.750Z,39.46
2019-03-19T06:17:38.752Z,39.52
2019-03-19T06:18:38.792Z,39.48
2019-03-19T06:19:38.791Z,39.47
2019-03-19T06:20:38.906Z,39.44
2019-03-19T06:21:38.797Z,39.43
2019-03-19T06:22:38.869Z,39.43
2019-03-19T06:23:38.907Z,39.45
2019-03-19T06:24:38.820Z,39.46
2019-03-19T06:25:38.939Z,39.46
2019-03-19T06:26:38.944Z,39.43
2019-03-19T06:27:38.691Z,39.43
2019-03-19T06:28:38.740Z,39.42
2019-03-19T06:29:38.659Z,39.4
2019-03-19T06:30:38.710Z,39.42
2019-03-19T06:31:38.797Z,39.44
2019-03-19T06:32:39.225Z,39.37
2019-03-19T06:33:39.226Z,39.44
2019-03-19T06:34:38.780Z,39.41
2019-03-19T06:35:38.750Z,39.38
2019-03-19T06:36:38.805Z,39.41
2019-03-19T06:37:38.799Z,39.35
2019-03-19T06:38:38.767Z,39.34
2019-03-19T06:39:38.824Z,39.38
2019-03-19T06:40:38.846Z,39.36
2019-03-19T06:41:38.806Z,39.35
2019-03-19T06:42:39.000Z,39.32
2019-03-19T06:43:38.883Z,39.31
2019-03-19T06:44:38.962Z,39.3
2019-03-19T06:45:38.889Z,39.38
2019-03-19T06:46:38.669Z,39.32
2019-03-19T06:47:38.611Z,39.31
2019-03-19T06:48:38.648Z,39.32
2019-03-19T06:49:38.708Z,39.29
2019-03-19T06:50:45.735Z,39.24
2019-03-19T06:51:38.721Z,39.24
2019-03-19T06:52:38.729Z,39.28
2019-03-19T06:53:38.715Z,39.17
2019-03-19T06:54:38.801Z,39.27
2019-03-19T06:55:38.807Z,39.23
2019-03-19T06:56:38.722Z,39.23
2019-03-19T06:57:39.683Z,39.21
2019-03-19T06:58:38.820Z,39.22
2019-03-19T06:59:38.918Z,39.24
2019-03-19T07:00:38.810Z,39.23
2019-03-19T07:01:38.808Z,39.19
2019-03-19T07:02:38.820Z,39.17
2019-03-19T07:03:38.925Z,39.23
2019-03-19T07:04:38.751Z,39.19
2019-03-19T07:05:38.659Z,39.19
2019-03-19T07:06:38.720Z,39.16
2019-03-19T07:07:38.655Z,39.19
2019-03-19T07:08:38.755Z,39.13
2019-03-19T07:09:38.712Z,39.15
2019-03-19T07:10:38.798Z,39.13
2019-03-19T07:11:38.778Z,39.17
2019-03-19T07:12:38.764Z,39.09
2019-03-19T07:13:38.814Z,39.1
2019-03-19T07:14:38.866Z,39.12
2019-03-19T07:15:38.874Z,39.1
2019-03-19T07:16:39.274Z,39.13
2019-03-19T07:17:38.868Z,39.08
2019-03-19T07:18:38.873Z,39.13
2019-03-19T07:19:38.864Z,39.08
2019-03-19T07:20:38.852Z,39.12
2019-03-19T07:21:38.862Z,39.15
2019-03-19T07:22:38.649Z,39.09
2019-03-19T07:23:38.628Z,39.12
2019-03-19T07:24:38.644Z,39.07
2019-03-19T07:25:38.682Z,39.08
2019-03-19T07:26:38.666Z,39.03
2019-03-19T07:27:38.772Z,39.05
2019-03-19T07:28:38.682Z,39.05
2019-03-19T07:29:38.689Z,39.05
2019-03-19T07:30:41.089Z,39.09
2019-03-19T07:31:38.830Z,38.99
2019-03-19T07:32:38.756Z,39.03
2019-03-19T07:33:38.784Z,39
2019-03-19T07:34:38.824Z,39.04
2019-03-19T07:35:38.769Z,39.02
2019-03-19T07:36:38.825Z,38.99
2019-03-19T07:37:39.001Z,39
2019-03-19T07:38:40.770Z,39.01
2019-03-19T07:39:38.850Z,39.01
2019-03-19T07:40:38.764Z,38.99
2019-03-19T07:41:38.719Z,38.98
2019-03-19T07:42:38.677Z,38.97
2019-03-19T07:43:38.728Z,38.91
2019-03-19T07:44:38.682Z,38.99
2019-03-19T07:45:38.721Z,38.94
2019-03-19T07:46:38.730Z,38.95
2019-03-19T07:47:38.739Z,38.96
2019-03-19T07:48:38.847Z,38.94
2019-03-19T07:49:39.102Z,38.95
2019-03-19T07:50:38.804Z,38.86
2019-03-19T07:51:38.890Z,38.9
2019-03-19T07:52:38.919Z,38.88
2019-03-19T07:53:38.933Z,38.9
2019-03-19T07:54:38.855Z,38.97
2019-03-19T07:55:38.924Z,38.94
2019-03-19T07:56:38.978Z,38.92
2019-03-19T07:57:38.887Z,38.87
2019-03-19T07:58:45.729Z,38.88
2019-03-19T07:59:38.977Z,38.88
2019-03-19T08:00:38.624Z,38.84
2019-03-19T08:01:38.587Z,38.86
2019-03-19T08:02:38.665Z,38.82
2019-03-19T08:03:38.639Z,38.86
2019-03-19T08:04:38.677Z,38.85
2019-03-19T08:05:38.651Z,38.88
2019-03-19T08:06:38.911Z,38.85
2019-03-19T08:07:38.916Z,38.83
2019-03-19T08:08:38.794Z,38.79
2019-03-19T08:09:39.010Z,38.81
2019-03-19T08:10:38.844Z,38.79
2019-03-19T08:11:38.813Z,38.83
2019-03-19T08:12:38.783Z,38.82
2019-03-19T08:13:39.149Z,38.78
2019-03-19T08:14:38.868Z,38.8
2019-03-19T08:15:38.588Z,38.78
2019-03-19T08:16:38.558Z,38.87
2019-03-19T08:17:38.630Z,38.88
2019-03-19T08:18:38.657Z,38.99
2019-03-19T08:19:38.687Z,39.11
2019-03-19T08:20:38.688Z,39.21
2019-03-19T08:21:38.747Z,39.13
2019-03-19T08:22:38.755Z,39.21
2019-03-19T08:23:38.684Z,39.35
2019-03-19T08:24:38.783Z,39.27
2019-03-19T08:25:38.786Z,39.29
2019-03-19T08:26:38.746Z,39.28
2019-03-19T08:27:38.769Z,39.21
2019-03-19T08:28:38.835Z,39.27
2019-03-19T08:29:38.830Z,39.18
2019-03-19T08:30:38.812Z,39.23
2019-03-19T08:31:38.842Z,39.12
2019-03-19T08:32:38.826Z,39.3
2019-03-19T08:33:38.862Z,39.61
2019-03-19T08:34:38.867Z,39.29
2019-03-19T08:35:38.600Z,39.54
2019-03-19T08:36:38.706Z,39.45
2019-03-19T08:37:38.601Z,38.82
2019-03-19T08:38:38.609Z,38.88
2019-03-19T08:39:38.619Z,39.06
2019-03-19T08:40:38.629Z,39.24
2019-03-19T08:41:38.737Z,39.2
2019-03-19T08:42:39.047Z,39.18
2019-03-19T08:43:38.776Z,39.21
2019-03-19T08:44:38.893Z,39.15
2019-03-19T08:45:38.767Z,39.13
2019-03-19T08:46:38.764Z,39.14
2019-03-19T08:47:38.745Z,39.09
2019-03-19T08:48:38.794Z,39.06
2019-03-19T08:49:38.972Z,39.05
2019-03-19T08:50:38.743Z,39.05
2019-03-19T08:51:38.844Z,38.99
2019-03-19T08:52:38.610Z,39.01
2019-03-19T08:53:38.582Z,39.02
2019-03-19T08:54:38.799Z,38.94
2019-03-19T08:55:38.765Z,39
2019-03-19T08:56:38.789Z,38.97
2019-03-19T08:57:38.693Z,38.97
2019-03-19T08:58:38.774Z,38.92
2019-03-19T08:59:38.720Z,38.92
2019-03-19T09:00:38.814Z,38.87
2019-03-19T09:01:38.767Z,38.92
2019-03-19T09:02:38.727Z,38.91
2019-03-19T09:03:38.854Z,38.89
2019-03-19T09:04:38.866Z,38.88
2019-03-19T09:05:38.861Z,38.86
2019-03-19T09:06:38.830Z,38.88
2019-03-19T09:07:38.903Z,38.86
2019-03-19T09:08:38.667Z,38.84
2019-03-19T09:09:38.638Z,38.82
2019-03-19T09:10:38.828Z,38.8
2019-03-19T09:11:38.878Z,38.86
2019-03-19T09:12:38.661Z,38.87
2019-03-19T09:13:38.678Z,38.85
2019-03-19T09:14:38.643Z,38.79
2019-03-19T09:15:38.677Z,38.75
2019-03-19T09:16:38.649Z,38.81
2019-03-19T09:17:38.778Z,38.76
2019-03-19T09:18:38.830Z,38.75
2019-03-19T09:19:38.814Z,38.73
2019-03-19T09:20:38.779Z,38.7
2019-03-19T09:21:38.730Z,38.7
2019-03-19T09:22:38.823Z,38.7
2019-03-19T09:23:38.759Z,38.72
2019-03-19T09:24:38.867Z,38.7
2019-03-19T09:25:38.851Z,38.72
2019-03-19T09:26:38.609Z,38.73
2019-03-19T09:27:38.610Z,38.68
2019-03-19T09:28:38.620Z,38.7
2019-03-19T09:29:38.609Z,38.69
2019-03-19T09:30:38.630Z,38.7
2019-03-19T09:31:38.714Z,38.67
2019-03-19T09:32:38.752Z,38.67
2019-03-19T09:33:38.782Z,38.65
2019-03-19T09:34:38.706Z,38.64
2019-03-19T09:35:38.708Z,38.59
2019-03-19T09:36:38.757Z,38.65
2019-03-19T09:37:49.270Z,38.64
2019-03-19T09:38:38.777Z,38.61
2019-03-19T09:39:38.879Z,38.65
2019-03-19T09:40:38.783Z,38.57
2019-03-19T09:41:38.794Z,38.58
2019-03-19T09:42:38.874Z,38.63
2019-03-19T09:43:39.091Z,38.64
2019-03-19T09:44:38.591Z,38.62
2019-03-19T09:45:38.665Z,38.59
2019-03-19T09:46:38.587Z,38.63
2019-03-19T09:47:38.797Z,38.59
2019-03-19T09:48:38.598Z,38.59
2019-03-19T09:49:38.768Z,38.6
2019-03-19T09:50:38.621Z,38.59
2019-03-19T09:51:38.662Z,38.57
2019-03-19T09:52:38.685Z,38.6
2019-03-19T09:53:38.668Z,38.54
2019-03-19T09:54:38.713Z,38.54
2019-03-19T09:55:38.736Z,38.56
2019-03-19T09:56:38.812Z,38.55
2019-03-19T09:57:38.778Z,38.55
2019-03-19T09:58:38.761Z,38.51
2019-03-19T09:59:38.756Z,38.54
2019-03-19T10:00:38.555Z,38.53
2019-03-19T10:01:38.621Z,38.57
2019-03-19T10:02:38.740Z,38.48
2019-03-19T10:03:38.624Z,38.5
2019-03-19T10:04:38.700Z,38.5
2019-03-19T10:05:38.642Z,38.52
2019-03-19T10:06:38.958Z,38.51
2019-03-19T10:07:38.689Z,38.5
2019-03-19T10:08:38.726Z,38.46
2019-03-19T10:09:38.788Z,38.51
2019-03-19T10:10:38.816Z,38.53
2019-03-19T10:11:38.724Z,38.51
2019-03-19T10:12:38.868Z,38.48
2019-03-19T10:13:38.753Z,38.45
2019-03-19T10:14:38.744Z,38.44
2019-03-19T10:15:39.123Z,38.42
2019-03-19T10:16:38.808Z,38.48
2019-03-19T10:17:38.884Z,38.43
2019-03-19T10:18:38.511Z,38.48
2019-03-19T10:19:38.523Z,38.48
2019-03-19T10:20:38.599Z,38.48
2019-03-19T10:21:38.647Z,38.45
2019-03-19T10:22:38.712Z,38.47
2019-03-19T10:23:38.639Z,38.48
2019-03-19T10:24:38.655Z,38.45
2019-03-19T10:25:38.710Z,38.41
2019-03-19T10:26:38.666Z,38.4
2019-03-19T10:27:38.621Z,38.41
2019-03-19T10:28:38.800Z,38.38
2019-03-19T10:29:38.995Z,38.44
2019-03-19T10:30:38.712Z,38.38
2019-03-19T10:31:38.704Z,38.4
2019-03-19T10:32:38.713Z,38.44
2019-03-19T10:33:38.802Z,38.43
2019-03-19T10:34:38.730Z,38.36
2019-03-19T10:35:38.755Z,38.35
2019-03-19T10:36:38.723Z,38.41
2019-03-19T10:37:38.574Z,38.4
2019-03-19T10:38:38.566Z,38.38
2019-03-19T10:39:38.646Z,38.33
2019-03-19T10:40:38.528Z,38.35
2019-03-19T10:41:38.732Z,38.4
2019-03-19T10:42:38.764Z,38.35
2019-03-19T10:43:38.668Z,38.35
2019-03-19T10:44:38.663Z,38.42
2019-03-19T10:45:38.696Z,38.37
2019-03-19T10:46:38.703Z,38.31
2019-03-19T10:47:38.710Z,38.38
2019-03-19T10:48:38.750Z,38.32
2019-03-19T10:49:38.867Z,38.24
2019-03-19T10:50:38.932Z,38.31
2019-03-19T10:51:38.770Z,38.3
2019-03-19T10:52:38.804Z,38.31
2019-03-19T10:53:38.863Z,38.28
2019-03-19T10:54:38.486Z,38.29
2019-03-19T10:55:38.671Z,38.25
2019-03-19T10:56:39.212Z,38.25
2019-03-19T10:57:38.515Z,38.29
2019-03-19T10:58:38.523Z,38.31
2019-03-19T10:59:49.517Z,38.25
2019-03-19T11:00:38.557Z,38.29
2019-03-19T11:01:38.594Z,38.25
2019-03-19T11:02:38.601Z,38.31
2019-03-19T11:03:38.670Z,38.26
2019-03-19T11:04:38.654Z,38.27
2019-03-19T11:05:38.680Z,38.26
2019-03-19T11:06:38.711Z,38.27
2019-03-19T11:07:38.785Z,38.26
2019-03-19T11:08:38.591Z,38.23
2019-03-19T11:09:38.752Z,38.24
2019-03-19T11:10:38.757Z,38.26
2019-03-19T11:11:38.820Z,38.26
2019-03-19T11:12:38.588Z,38.21
2019-03-19T11:13:38.586Z,38.23
2019-03-19T11:14:38.586Z,38.25
2019-03-19T11:15:38.597Z,38.23
2019-03-19T11:16:38.630Z,38.19
2019-03-19T11:17:38.681Z,38.26
2019-03-19T11:18:38.667Z,38.19
2019-03-19T11:19:38.663Z,38.22
2019-03-19T11:20:38.667Z,38.25
2019-03-19T11:21:40.523Z,38.29
2019-03-19T11:22:38.737Z,38.25
2019-03-19T11:23:38.717Z,38.25
2019-03-19T11:24:38.730Z,38.19
2019-03-19T11:25:38.758Z,38.22
2019-03-19T11:26:38.808Z,38.23
2019-03-19T11:27:38.774Z,38.2
2019-03-19T11:28:38.887Z,38.25
2019-03-19T11:29:38.526Z,38.21
2019-03-19T11:30:38.465Z,38.26
2019-03-19T11:31:38.492Z,38.25
2019-03-19T11:32:38.528Z,38.23
2019-03-19T11:33:38.635Z,38.18
2019-03-19T11:34:39.846Z,38.21
2019-03-19T11:35:38.585Z,38.17
2019-03-19T11:36:38.613Z,38.22
2019-03-19T11:37:38.701Z,38.17
2019-03-19T11:38:38.585Z,38.18
2019-03-19T11:39:38.730Z,38.16
2019-03-19T11:40:38.732Z,38.16
2019-03-19T11:41:38.662Z,38.12
2019-03-19T11:42:38.835Z,38.15
2019-03-19T11:43:38.722Z,38.14
2019-03-19T11:44:38.720Z,38.13
2019-03-19T11:45:38.819Z,38.19
2019-03-19T11:46:38.809Z,38.17
2019-03-19T11:47:38.571Z,38.11
2019-03-19T11:48:38.541Z,38.18
2019-03-19T11:49:38.579Z,38.15
2019-03-19T11:50:38.573Z,38.11
2019-03-19T11:51:38.606Z,38.09
2019-03-19T11:52:40.413Z,38.19
2019-03-19T11:53:38.742Z,38.08
2019-03-19T11:54:38.612Z,38.14
2019-03-19T11:55:38.691Z,38.14
2019-03-19T11:56:38.633Z,38.12
2019-03-19T11:57:38.711Z,38.13
2019-03-19T11:58:38.746Z,38.17
2019-03-19T11:59:38.683Z,38.13
2019-03-19T12:00:39.075Z,38.15
2019-03-19T12:01:38.737Z,38.06
2019-03-19T12:02:38.717Z,38.15
2019-03-19T12:03:39.471Z,38.07
2019-03-19T12:04:39.054Z,38.09
2019-03-19T12:05:39.367Z,38.07
2019-03-19T12:06:38.535Z,38.06
2019-03-19T12:07:38.517Z,38.04
2019-03-19T12:08:38.528Z,38.09
2019-03-19T12:09:40.329Z,38.09
2019-03-19T12:10:38.716Z,38.09
2019-03-19T12:11:38.585Z,38.06
2019-03-19T12:12:38.676Z,38.11
2019-03-19T12:13:38.759Z,38.08
2019-03-19T12:14:38.634Z,38.06
2019-03-19T12:15:38.811Z,38.06
2019-03-19T12:16:38.679Z,38.07
2019-03-19T12:17:38.725Z,38.08
2019-03-19T12:18:38.756Z,38.08
2019-03-19T12:19:38.778Z,38.09
2019-03-19T12:20:38.694Z,38.08
2019-03-19T12:21:38.741Z,38.1
2019-03-19T12:22:38.920Z,38.08
2019-03-19T12:23:38.549Z,38.05
2019-03-19T12:24:38.592Z,37.97
2019-03-19T12:25:38.539Z,38.06
2019-03-19T12:26:38.585Z,38.04
2019-03-19T12:27:38.609Z,38.05
2019-03-19T12:28:40.090Z,38.08
2019-03-19T12:29:38.635Z,38
2019-03-19T12:30:38.640Z,38.05
2019-03-19T12:31:38.661Z,38.02
2019-03-19T12:32:38.643Z,38.04
2019-03-19T12:33:41.648Z,37.97
2019-03-19T12:34:38.769Z,38.01
2019-03-19T12:35:38.730Z,38.02
2019-03-19T12:36:38.667Z,38
2019-03-19T12:37:38.742Z,37.98
2019-03-19T12:38:38.788Z,38.02
2019-03-19T12:39:38.781Z,38.03
2019-03-19T12:40:38.561Z,37.99
2019-03-19T12:41:38.523Z,38
2019-03-19T12:42:38.503Z,38.02
2019-03-19T12:43:38.572Z,37.94
2019-03-19T12:44:38.543Z,38.02
2019-03-19T12:45:38.574Z,37.96
2019-03-19T12:46:38.617Z,37.98
2019-03-19T12:47:38.596Z,38.01
2019-03-19T12:48:38.561Z,37.92
2019-03-19T12:49:38.601Z,37.94
2019-03-19T12:50:38.617Z,38.06
2019-03-19T12:51:38.694Z,38.05
2019-03-19T12:52:38.745Z,38.03
2019-03-19T12:53:38.701Z,37.97
2019-03-19T12:54:38.796Z,37.98
2019-03-19T12:55:39.865Z,37.93